sensor_id;sensor_type;location;lat;lon;timestamp;temperature;humidity
23731;DHT22;12046;44.702;10.622;2023-05-10T00:03:30;17.40;99.90
23731;DHT22;12046;44.702;10.622;2023-05-10T00:06:11;17.40;99.90
23731;DHT22;12046;44.702;10.622;2023-05-10T00:09:06;17.40;99.90
23731;DHT22;12046;44.702;10.622;2023-05-10T00:11:50;17.40;99.90
23731;DHT22;12046;44.702;10.622;2023-05-10T00:14:38;17.40;99.90
23731;DHT22;12046;44.702;10.622;2023-05-10T00:17:42;17.40;99.90
23731;DHT22;12046;44.702;10.622;2023-05-10T00:23:57;17.30;99.90
23731;DHT22;12046;44.702;10.622;2023-05-10T00:27:26;17.40;99.90
23731;DHT22;12046;44.702;10.622;2023-05-10T00:30:18;17.40;99.90
23731;DHT22;12046;44.702;10.622;2023-05-10T00:32:52;17.30;99.90
23731;DHT22;12046;44.702;10.622;2023-05-10T00:38:35;17.30;99.90
23731;DHT22;12046;44.702;10.622;2023-05-10T00:41:00;17.30;99.90
23731;DHT22;12046;44.702;10.622;2023-05-10T00:43:26;17.30;99.90
23731;DHT22;12046;44.702;10.622;2023-05-10T00:45:52;17.20;99.90
23731;DHT22;12046;44.702;10.622;2023-05-10T00:48:18;17.20;99.90
23731;DHT22;12046;44.702;10.622;2023-05-10T00:50:45;17.20;99.90
23731;DHT22;12046;44.702;10.622;2023-05-10T00:53:11;17.20;99.90
23731;DHT22;12046;44.702;10.622;2023-05-10T00:55:37;17.10;99.90
23731;DHT22;12046;44.702;10.622;2023-05-10T00:58:04;17.00;99.90
23731;DHT22;12046;44.702;10.622;2023-05-10T01:00:30;17.00;99.90
23731;DHT22;12046;44.702;10.622;2023-05-10T01:02:58;16.90;99.90
23731;DHT22;12046;44.702;10.622;2023-05-10T01:05:23;16.90;99.90
23731;DHT22;12046;44.702;10.622;2023-05-10T01:07:50;16.90;99.90
23731;DHT22;12046;44.702;10.622;2023-05-10T01:10:16;16.90;99.90
23731;DHT22;12046;44.702;10.622;2023-05-10T01:12:45;16.90;99.90
23731;DHT22;12046;44.702;10.622;2023-05-10T01:15:12;16.90;99.90
23731;DHT22;12046;44.702;10.622;2023-05-10T01:17:39;16.90;99.90
23731;DHT22;12046;44.702;10.622;2023-05-10T01:20:07;16.90;99.90
23731;DHT22;12046;44.702;10.622;2023-05-10T01:23:07;16.90;99.90
23731;DHT22;12046;44.702;10.622;2023-05-10T01:26:07;16.90;99.90
23731;DHT22;12046;44.702;10.622;2023-05-10T01:34:20;16.80;99.90
23731;DHT22;12046;44.702;10.622;2023-05-10T01:37:09;16.70;99.90
23731;DHT22;12046;44.702;10.622;2023-05-10T01:42:20;16.60;99.90
23731;DHT22;12046;44.702;10.622;2023-05-10T01:47:38;16.50;99.90
23731;DHT22;12046;44.702;10.622;2023-05-10T01:50:06;16.60;99.90
23731;DHT22;12046;44.702;10.622;2023-05-10T01:52:42;16.50;99.90
23731;DHT22;12046;44.702;10.622;2023-05-10T01:55:13;16.50;99.90
23731;DHT22;12046;44.702;10.622;2023-05-10T01:57:44;16.40;99.90
23731;DHT22;12046;44.702;10.622;2023-05-10T02:00:11;16.40;99.90
23731;DHT22;12046;44.702;10.622;2023-05-10T02:02:40;16.40;99.90
23731;DHT22;12046;44.702;10.622;2023-05-10T02:05:08;16.40;99.90
23731;DHT22;12046;44.702;10.622;2023-05-10T02:07:36;16.30;99.90
23731;DHT22;12046;44.702;10.622;2023-05-10T02:10:04;16.30;99.90
23731;DHT22;12046;44.702;10.622;2023-05-10T02:12:35;16.30;99.90
23731;DHT22;12046;44.702;10.622;2023-05-10T02:15:03;16.30;99.90
23731;DHT22;12046;44.702;10.622;2023-05-10T02:17:32;16.30;99.90
23731;DHT22;12046;44.702;10.622;2023-05-10T02:19:59;16.20;99.90
23731;DHT22;12046;44.702;10.622;2023-05-10T02:22:27;16.20;99.90
23731;DHT22;12046;44.702;10.622;2023-05-10T02:24:58;16.20;99.90
23731;DHT22;12046;44.702;10.622;2023-05-10T02:27:25;16.20;99.90
23731;DHT22;12046;44.702;10.622;2023-05-10T02:29:53;16.10;99.90
23731;DHT22;12046;44.702;10.622;2023-05-10T02:32:21;16.10;99.90
23731;DHT22;12046;44.702;10.622;2023-05-10T02:34:48;16.10;99.90
23731;DHT22;12046;44.702;10.622;2023-05-10T02:37:19;16.10;99.90
23731;DHT22;12046;44.702;10.622;2023-05-10T02:39:53;16.10;99.90
23731;DHT22;12046;44.702;10.622;2023-05-10T02:42:25;16.00;99.90
23731;DHT22;12046;44.702;10.622;2023-05-10T02:44:58;16.00;99.90
23731;DHT22;12046;44.702;10.622;2023-05-10T02:47:25;16.00;99.90
23731;DHT22;12046;44.702;10.622;2023-05-10T02:49:51;15.90;99.90
23731;DHT22;12046;44.702;10.622;2023-05-10T02:52:23;15.90;99.90
23731;DHT22;12046;44.702;10.622;2023-05-10T02:54:52;15.90;99.90
23731;DHT22;12046;44.702;10.622;2023-05-10T02:57:26;15.90;99.90
23731;DHT22;12046;44.702;10.622;2023-05-10T02:59:53;15.90;99.90
23731;DHT22;12046;44.702;10.622;2023-05-10T03:02:20;15.80;99.90
23731;DHT22;12046;44.702;10.622;2023-05-10T03:04:46;15.80;99.90
23731;DHT22;12046;44.702;10.622;2023-05-10T03:07:12;15.80;99.90
23731;DHT22;12046;44.702;10.622;2023-05-10T03:09:38;15.80;99.90
23731;DHT22;12046;44.702;10.622;2023-05-10T03:14:49;15.80;99.90
23731;DHT22;12046;44.702;10.622;2023-05-10T03:17:48;15.80;99.90
23731;DHT22;12046;44.702;10.622;2023-05-10T03:20:41;15.70;99.90
23731;DHT22;12046;44.702;10.622;2023-05-10T03:23:30;15.70;99.90
23731;DHT22;12046;44.702;10.622;2023-05-10T03:25:59;15.70;99.90
23731;DHT22;12046;44.702;10.622;2023-05-10T03:28:26;15.70;99.90
23731;DHT22;12046;44.702;10.622;2023-05-10T03:30:53;15.70;99.90
23731;DHT22;12046;44.702;10.622;2023-05-10T03:33:20;15.70;99.90
23731;DHT22;12046;44.702;10.622;2023-05-10T03:35:46;15.60;99.90
23731;DHT22;12046;44.702;10.622;2023-05-10T03:38:12;15.70;99.90
23731;DHT22;12046;44.702;10.622;2023-05-10T03:40:39;15.70;99.90
23731;DHT22;12046;44.702;10.622;2023-05-10T03:43:05;15.70;99.90
23731;DHT22;12046;44.702;10.622;2023-05-10T03:45:30;15.60;99.90
23731;DHT22;12046;44.702;10.622;2023-05-10T03:47:57;15.60;99.90
23731;DHT22;12046;44.702;10.622;2023-05-10T03:50:23;15.60;99.90
23731;DHT22;12046;44.702;10.622;2023-05-10T03:52:49;15.60;99.90
23731;DHT22;12046;44.702;10.622;2023-05-10T03:55:16;15.60;99.90
23731;DHT22;12046;44.702;10.622;2023-05-10T03:57:42;15.60;99.90
23731;DHT22;12046;44.702;10.622;2023-05-10T04:00:08;15.60;99.90
23731;DHT22;12046;44.702;10.622;2023-05-10T04:02:35;15.60;99.90
23731;DHT22;12046;44.702;10.622;2023-05-10T04:05:01;15.60;99.90
23731;DHT22;12046;44.702;10.622;2023-05-10T04:07:27;15.50;99.90
23731;DHT22;12046;44.702;10.622;2023-05-10T04:09:53;15.50;99.90
23731;DHT22;12046;44.702;10.622;2023-05-10T04:12:18;15.50;99.90
23731;DHT22;12046;44.702;10.622;2023-05-10T04:14:44;15.40;99.90
23731;DHT22;12046;44.702;10.622;2023-05-10T04:17:10;15.40;99.90
23731;DHT22;12046;44.702;10.622;2023-05-10T04:19:36;15.40;99.90
23731;DHT22;12046;44.702;10.622;2023-05-10T04:22:02;15.40;99.90
23731;DHT22;12046;44.702;10.622;2023-05-10T04:24:28;15.40;99.90
23731;DHT22;12046;44.702;10.622;2023-05-10T04:26:54;15.40;99.90
23731;DHT22;12046;44.702;10.622;2023-05-10T04:29:20;15.30;99.90
23731;DHT22;12046;44.702;10.622;2023-05-10T04:31:46;15.30;99.90
23731;DHT22;12046;44.702;10.622;2023-05-10T04:34:12;15.30;99.90
23731;DHT22;12046;44.702;10.622;2023-05-10T04:36:38;15.30;99.90
23731;DHT22;12046;44.702;10.622;2023-05-10T04:39:04;15.30;99.90
23731;DHT22;12046;44.702;10.622;2023-05-10T04:41:30;15.30;99.90
23731;DHT22;12046;44.702;10.622;2023-05-10T04:43:56;15.20;99.90
23731;DHT22;12046;44.702;10.622;2023-05-10T04:46:22;15.20;99.90
23731;DHT22;12046;44.702;10.622;2023-05-10T04:48:48;15.20;99.90
23731;DHT22;12046;44.702;10.622;2023-05-10T04:51:13;15.20;99.90
23731;DHT22;12046;44.702;10.622;2023-05-10T04:53:42;15.20;99.90
23731;DHT22;12046;44.702;10.622;2023-05-10T04:56:17;15.20;99.90
23731;DHT22;12046;44.702;10.622;2023-05-10T04:58:42;15.10;99.90
23731;DHT22;12046;44.702;10.622;2023-05-10T05:01:09;15.10;99.90
23731;DHT22;12046;44.702;10.622;2023-05-10T05:03:36;15.10;99.90
23731;DHT22;12046;44.702;10.622;2023-05-10T05:06:03;15.00;99.90
23731;DHT22;12046;44.702;10.622;2023-05-10T05:08:28;15.00;99.90
23731;DHT22;12046;44.702;10.622;2023-05-10T05:10:54;15.00;99.90
23731;DHT22;12046;44.702;10.622;2023-05-10T05:13:20;15.00;99.90
23731;DHT22;12046;44.702;10.622;2023-05-10T05:15:46;15.00;99.90
23731;DHT22;12046;44.702;10.622;2023-05-10T05:18:11;15.00;99.90
23731;DHT22;12046;44.702;10.622;2023-05-10T05:20:37;15.00;99.90
23731;DHT22;12046;44.702;10.622;2023-05-10T05:23:06;15.00;99.90
23731;DHT22;12046;44.702;10.622;2023-05-10T05:25:39;14.90;99.90
23731;DHT22;12046;44.702;10.622;2023-05-10T05:28:05;15.00;99.90
23731;DHT22;12046;44.702;10.622;2023-05-10T05:30:31;15.00;99.90
23731;DHT22;12046;44.702;10.622;2023-05-10T05:32:57;14.90;99.90
23731;DHT22;12046;44.702;10.622;2023-05-10T05:35:23;15.00;99.90
23731;DHT22;12046;44.702;10.622;2023-05-10T05:37:49;15.00;99.90
23731;DHT22;12046;44.702;10.622;2023-05-10T05:40:15;15.00;99.90
23731;DHT22;12046;44.702;10.622;2023-05-10T05:42:41;15.00;99.90
23731;DHT22;12046;44.702;10.622;2023-05-10T05:45:07;14.90;99.90
23731;DHT22;12046;44.702;10.622;2023-05-10T05:47:34;15.00;99.90
23731;DHT22;12046;44.702;10.622;2023-05-10T05:50:00;14.90;99.90
23731;DHT22;12046;44.702;10.622;2023-05-10T05:52:26;14.90;99.90
23731;DHT22;12046;44.702;10.622;2023-05-10T05:54:51;14.90;99.90
23731;DHT22;12046;44.702;10.622;2023-05-10T05:57:17;15.00;99.90
23731;DHT22;12046;44.702;10.622;2023-05-10T05:59:43;15.00;99.90
23731;DHT22;12046;44.702;10.622;2023-05-10T06:02:10;15.00;99.90
23731;DHT22;12046;44.702;10.622;2023-05-10T06:04:35;15.00;99.90
23731;DHT22;12046;44.702;10.622;2023-05-10T06:07:01;15.00;99.90
23731;DHT22;12046;44.702;10.622;2023-05-10T06:09:30;15.00;99.90
23731;DHT22;12046;44.702;10.622;2023-05-10T06:11:56;15.00;99.90
23731;DHT22;12046;44.702;10.622;2023-05-10T06:14:22;15.00;99.90
23731;DHT22;12046;44.702;10.622;2023-05-10T06:16:48;15.00;99.90
23731;DHT22;12046;44.702;10.622;2023-05-10T06:19:14;15.10;99.90
23731;DHT22;12046;44.702;10.622;2023-05-10T06:21:40;15.10;99.90
23731;DHT22;12046;44.702;10.622;2023-05-10T06:24:06;15.10;99.90
23731;DHT22;12046;44.702;10.622;2023-05-10T06:26:32;15.10;99.90
23731;DHT22;12046;44.702;10.622;2023-05-10T06:28:58;15.10;99.90
23731;DHT22;12046;44.702;10.622;2023-05-10T06:31:24;15.10;99.90
23731;DHT22;12046;44.702;10.622;2023-05-10T06:33:50;15.20;99.90
23731;DHT22;12046;44.702;10.622;2023-05-10T06:36:16;15.20;99.90
23731;DHT22;12046;44.702;10.622;2023-05-10T06:38:45;15.20;99.90
23731;DHT22;12046;44.702;10.622;2023-05-10T06:41:22;15.20;99.90
23731;DHT22;12046;44.702;10.622;2023-05-10T06:43:49;15.20;99.90
23731;DHT22;12046;44.702;10.622;2023-05-10T06:46:14;15.20;99.90
23731;DHT22;12046;44.702;10.622;2023-05-10T06:48:40;15.20;99.90
23731;DHT22;12046;44.702;10.622;2023-05-10T06:51:09;15.20;99.90
23731;DHT22;12046;44.702;10.622;2023-05-10T06:53:35;15.20;99.90
23731;DHT22;12046;44.702;10.622;2023-05-10T06:56:01;15.20;99.90
23731;DHT22;12046;44.702;10.622;2023-05-10T06:58:33;15.20;99.90
23731;DHT22;12046;44.702;10.622;2023-05-10T07:01:03;15.20;99.90
23731;DHT22;12046;44.702;10.622;2023-05-10T07:03:30;15.20;99.90
23731;DHT22;12046;44.702;10.622;2023-05-10T07:06:03;15.20;99.90
23731;DHT22;12046;44.702;10.622;2023-05-10T07:08:33;15.20;99.90
23731;DHT22;12046;44.702;10.622;2023-05-10T07:11:07;15.20;99.90
23731;DHT22;12046;44.702;10.622;2023-05-10T07:13:33;15.20;99.90
23731;DHT22;12046;44.702;10.622;2023-05-10T07:16:00;15.20;99.90
23731;DHT22;12046;44.702;10.622;2023-05-10T07:18:27;15.20;99.90
23731;DHT22;12046;44.702;10.622;2023-05-10T07:20:54;15.20;99.90
23731;DHT22;12046;44.702;10.622;2023-05-10T07:23:20;15.20;99.90
23731;DHT22;12046;44.702;10.622;2023-05-10T07:25:47;15.20;99.90
23731;DHT22;12046;44.702;10.622;2023-05-10T07:28:14;15.10;99.90
23731;DHT22;12046;44.702;10.622;2023-05-10T07:30:43;15.10;99.90
23731;DHT22;12046;44.702;10.622;2023-05-10T07:33:14;15.10;99.90
23731;DHT22;12046;44.702;10.622;2023-05-10T07:35:41;15.10;99.90
23731;DHT22;12046;44.702;10.622;2023-05-10T07:38:12;15.10;99.90
23731;DHT22;12046;44.702;10.622;2023-05-10T07:40:39;15.00;99.90
23731;DHT22;12046;44.702;10.622;2023-05-10T07:43:05;15.00;99.90
23731;DHT22;12046;44.702;10.622;2023-05-10T07:45:30;15.00;99.90
23731;DHT22;12046;44.702;10.622;2023-05-10T07:47:56;15.00;99.90
23731;DHT22;12046;44.702;10.622;2023-05-10T07:50:22;15.00;99.90
23731;DHT22;12046;44.702;10.622;2023-05-10T07:52:48;15.00;99.90
23731;DHT22;12046;44.702;10.622;2023-05-10T07:55:14;15.00;99.90
23731;DHT22;12046;44.702;10.622;2023-05-10T07:57:40;15.00;99.90
23731;DHT22;12046;44.702;10.622;2023-05-10T08:00:06;15.00;99.90
23731;DHT22;12046;44.702;10.622;2023-05-10T08:02:34;14.90;99.90
23731;DHT22;12046;44.702;10.622;2023-05-10T08:05:00;14.90;99.90
23731;DHT22;12046;44.702;10.622;2023-05-10T08:07:26;14.80;99.90
23731;DHT22;12046;44.702;10.622;2023-05-10T08:09:52;14.80;99.90
23731;DHT22;12046;44.702;10.622;2023-05-10T08:12:17;14.70;99.90
23731;DHT22;12046;44.702;10.622;2023-05-10T08:14:43;14.70;99.90
23731;DHT22;12046;44.702;10.622;2023-05-10T08:17:09;14.70;99.90
23731;DHT22;12046;44.702;10.622;2023-05-10T08:19:35;14.60;99.90
23731;DHT22;12046;44.702;10.622;2023-05-10T08:22:03;14.60;99.90
23731;DHT22;12046;44.702;10.622;2023-05-10T08:24:29;14.60;99.90
23731;DHT22;12046;44.702;10.622;2023-05-10T08:26:55;14.60;99.90
23731;DHT22;12046;44.702;10.622;2023-05-10T08:29:20;14.50;99.90
23731;DHT22;12046;44.702;10.622;2023-05-10T08:31:46;14.50;99.90
23731;DHT22;12046;44.702;10.622;2023-05-10T08:34:14;14.50;99.90
23731;DHT22;12046;44.702;10.622;2023-05-10T08:36:40;14.50;99.90
23731;DHT22;12046;44.702;10.622;2023-05-10T08:39:06;14.50;99.90
23731;DHT22;12046;44.702;10.622;2023-05-10T08:41:38;14.50;99.90
23731;DHT22;12046;44.702;10.622;2023-05-10T08:44:06;14.50;99.90
23731;DHT22;12046;44.702;10.622;2023-05-10T08:46:34;14.50;99.90
23731;DHT22;12046;44.702;10.622;2023-05-10T08:49:04;14.50;99.90
23731;DHT22;12046;44.702;10.622;2023-05-10T08:51:34;14.50;99.90
23731;DHT22;12046;44.702;10.622;2023-05-10T08:54:06;14.50;99.90
23731;DHT22;12046;44.702;10.622;2023-05-10T08:56:32;14.50;99.90
23731;DHT22;12046;44.702;10.622;2023-05-10T08:58:58;14.60;99.90
23731;DHT22;12046;44.702;10.622;2023-05-10T09:01:24;14.50;99.90
23731;DHT22;12046;44.702;10.622;2023-05-10T09:03:54;14.50;99.90
23731;DHT22;12046;44.702;10.622;2023-05-10T09:06:20;14.50;99.90
23731;DHT22;12046;44.702;10.622;2023-05-10T09:08:52;14.50;99.90
23731;DHT22;12046;44.702;10.622;2023-05-10T09:11:18;14.50;99.90
23731;DHT22;12046;44.702;10.622;2023-05-10T09:13:49;14.50;99.90
23731;DHT22;12046;44.702;10.622;2023-05-10T09:16:16;14.50;99.90
23731;DHT22;12046;44.702;10.622;2023-05-10T09:18:42;14.50;99.90
23731;DHT22;12046;44.702;10.622;2023-05-10T09:21:13;14.40;99.90
23731;DHT22;12046;44.702;10.622;2023-05-10T09:23:43;14.40;99.90
23731;DHT22;12046;44.702;10.622;2023-05-10T09:26:12;14.30;99.90
23731;DHT22;12046;44.702;10.622;2023-05-10T09:28:57;14.30;99.90
23731;DHT22;12046;44.702;10.622;2023-05-10T09:31:24;14.30;99.90
23731;DHT22;12046;44.702;10.622;2023-05-10T09:33:53;14.20;99.90
23731;DHT22;12046;44.702;10.622;2023-05-10T09:36:18;14.20;99.90
23731;DHT22;12046;44.702;10.622;2023-05-10T09:38:49;14.20;99.90
23731;DHT22;12046;44.702;10.622;2023-05-10T09:41:20;14.10;99.90
23731;DHT22;12046;44.702;10.622;2023-05-10T09:43:47;14.10;99.90
23731;DHT22;12046;44.702;10.622;2023-05-10T09:46:13;14.10;99.90
23731;DHT22;12046;44.702;10.622;2023-05-10T09:48:44;14.10;99.90
23731;DHT22;12046;44.702;10.622;2023-05-10T09:51:10;14.00;99.90
23731;DHT22;12046;44.702;10.622;2023-05-10T09:53:36;14.00;99.90
23731;DHT22;12046;44.702;10.622;2023-05-10T09:56:02;14.10;99.90
23731;DHT22;12046;44.702;10.622;2023-05-10T09:58:28;14.10;99.90
23731;DHT22;12046;44.702;10.622;2023-05-10T10:00:53;14.10;99.90
23731;DHT22;12046;44.702;10.622;2023-05-10T10:03:21;14.10;99.90
23731;DHT22;12046;44.702;10.622;2023-05-10T10:05:48;14.10;99.90
23731;DHT22;12046;44.702;10.622;2023-05-10T10:08:14;14.10;99.90
23731;DHT22;12046;44.702;10.622;2023-05-10T10:10:41;14.10;99.90
23731;DHT22;12046;44.702;10.622;2023-05-10T10:13:07;14.10;99.90
23731;DHT22;12046;44.702;10.622;2023-05-10T10:15:34;14.10;99.90
23731;DHT22;12046;44.702;10.622;2023-05-10T10:18:00;14.10;99.90
23731;DHT22;12046;44.702;10.622;2023-05-10T10:20:27;14.10;99.90
23731;DHT22;12046;44.702;10.622;2023-05-10T10:22:53;14.20;99.90
23731;DHT22;12046;44.702;10.622;2023-05-10T10:25:19;14.10;99.90
23731;DHT22;12046;44.702;10.622;2023-05-10T10:30:40;14.10;99.90
23731;DHT22;12046;44.702;10.622;2023-05-10T10:33:28;14.20;99.90
23731;DHT22;12046;44.702;10.622;2023-05-10T10:36:00;14.20;99.90
23731;DHT22;12046;44.702;10.622;2023-05-10T10:49:49;14.30;99.90
23731;DHT22;12046;44.702;10.622;2023-05-10T10:52:36;14.30;99.90
23731;DHT22;12046;44.702;10.622;2023-05-10T11:03:13;14.50;99.90
23731;DHT22;12046;44.702;10.622;2023-05-10T11:08:14;14.60;99.90
23731;DHT22;12046;44.702;10.622;2023-05-10T11:11:07;14.60;99.90
23731;DHT22;12046;44.702;10.622;2023-05-10T11:13:41;14.50;99.90
23731;DHT22;12046;44.702;10.622;2023-05-10T11:16:21;14.60;99.90
23731;DHT22;12046;44.702;10.622;2023-05-10T11:19:02;14.60;99.90
23731;DHT22;12046;44.702;10.622;2023-05-10T11:21:32;14.60;99.90
23731;DHT22;12046;44.702;10.622;2023-05-10T11:24:00;14.60;99.90
23731;DHT22;12046;44.702;10.622;2023-05-10T11:26:31;14.70;99.90
23731;DHT22;12046;44.702;10.622;2023-05-10T11:28:57;14.70;99.90
23731;DHT22;12046;44.702;10.622;2023-05-10T11:31:25;14.70;99.90
23731;DHT22;12046;44.702;10.622;2023-05-10T11:33:54;14.80;99.90
23731;DHT22;12046;44.702;10.622;2023-05-10T11:36:23;14.80;99.90
23731;DHT22;12046;44.702;10.622;2023-05-10T11:38:49;14.80;99.90
23731;DHT22;12046;44.702;10.622;2023-05-10T11:41:19;14.90;99.90
23731;DHT22;12046;44.702;10.622;2023-05-10T11:43:49;14.90;99.90
23731;DHT22;12046;44.702;10.622;2023-05-10T11:46:16;14.90;99.90
23731;DHT22;12046;44.702;10.622;2023-05-10T11:48:43;14.90;99.90
23731;DHT22;12046;44.702;10.622;2023-05-10T11:51:12;14.90;99.90
23731;DHT22;12046;44.702;10.622;2023-05-10T11:53:41;14.90;99.90
23731;DHT22;12046;44.702;10.622;2023-05-10T11:56:08;14.90;99.90
23731;DHT22;12046;44.702;10.622;2023-05-10T11:58:36;14.90;99.90
23731;DHT22;12046;44.702;10.622;2023-05-10T12:01:05;15.00;99.90
23731;DHT22;12046;44.702;10.622;2023-05-10T12:03:32;15.00;99.90
23731;DHT22;12046;44.702;10.622;2023-05-10T12:05:58;15.00;99.90
23731;DHT22;12046;44.702;10.622;2023-05-10T12:08:26;15.00;99.90
23731;DHT22;12046;44.702;10.622;2023-05-10T12:10:53;15.00;99.90
23731;DHT22;12046;44.702;10.622;2023-05-10T12:13:20;15.10;99.90
23731;DHT22;12046;44.702;10.622;2023-05-10T12:15:52;15.10;99.90
23731;DHT22;12046;44.702;10.622;2023-05-10T12:18:22;15.10;99.90
23731;DHT22;12046;44.702;10.622;2023-05-10T12:20:52;15.10;99.90
23731;DHT22;12046;44.702;10.622;2023-05-10T12:23:20;15.10;99.90
23731;DHT22;12046;44.702;10.622;2023-05-10T12:25:46;15.10;99.90
23731;DHT22;12046;44.702;10.622;2023-05-10T12:28:19;15.10;99.90
23731;DHT22;12046;44.702;10.622;2023-05-10T12:30:45;15.10;99.90
23731;DHT22;12046;44.702;10.622;2023-05-10T12:33:14;15.10;99.90
23731;DHT22;12046;44.702;10.622;2023-05-10T12:35:52;15.10;99.90
23731;DHT22;12046;44.702;10.622;2023-05-10T12:38:29;15.10;99.90
23731;DHT22;12046;44.702;10.622;2023-05-10T12:41:12;15.20;99.90
23731;DHT22;12046;44.702;10.622;2023-05-10T12:43:39;15.20;99.90
23731;DHT22;12046;44.702;10.622;2023-05-10T12:46:16;15.20;99.90
23731;DHT22;12046;44.702;10.622;2023-05-10T12:48:43;15.20;99.90
23731;DHT22;12046;44.702;10.622;2023-05-10T12:51:09;15.20;99.90
23731;DHT22;12046;44.702;10.622;2023-05-10T12:53:37;15.20;99.90
23731;DHT22;12046;44.702;10.622;2023-05-10T12:56:03;15.20;99.90
23731;DHT22;12046;44.702;10.622;2023-05-10T12:58:29;15.20;99.90
23731;DHT22;12046;44.702;10.622;2023-05-10T13:00:55;15.20;99.90
23731;DHT22;12046;44.702;10.622;2023-05-10T13:03:22;15.10;99.90
23731;DHT22;12046;44.702;10.622;2023-05-10T13:05:48;15.10;99.90
23731;DHT22;12046;44.702;10.622;2023-05-10T13:08:14;15.10;99.90
23731;DHT22;12046;44.702;10.622;2023-05-10T13:10:40;15.10;99.90
23731;DHT22;12046;44.702;10.622;2023-05-10T13:13:06;15.10;99.90
23731;DHT22;12046;44.702;10.622;2023-05-10T13:15:34;15.10;99.90
23731;DHT22;12046;44.702;10.622;2023-05-10T13:18:10;15.10;99.90
23731;DHT22;12046;44.702;10.622;2023-05-10T13:20:39;15.10;99.90
23731;DHT22;12046;44.702;10.622;2023-05-10T13:23:05;15.10;99.90
23731;DHT22;12046;44.702;10.622;2023-05-10T13:25:31;15.00;99.90
23731;DHT22;12046;44.702;10.622;2023-05-10T13:27:56;15.00;99.90
23731;DHT22;12046;44.702;10.622;2023-05-10T13:30:22;15.00;99.90
23731;DHT22;12046;44.702;10.622;2023-05-10T13:32:52;15.00;99.90
23731;DHT22;12046;44.702;10.622;2023-05-10T13:35:18;15.00;99.90
23731;DHT22;12046;44.702;10.622;2023-05-10T13:37:46;15.00;99.90
23731;DHT22;12046;44.702;10.622;2023-05-10T13:40:15;15.00;99.90
23731;DHT22;12046;44.702;10.622;2023-05-10T13:42:44;15.00;99.90
23731;DHT22;12046;44.702;10.622;2023-05-10T13:45:13;15.00;99.90
23731;DHT22;12046;44.702;10.622;2023-05-10T13:47:38;14.90;99.90
23731;DHT22;12046;44.702;10.622;2023-05-10T13:50:05;14.90;99.90
23731;DHT22;12046;44.702;10.622;2023-05-10T13:52:37;14.90;99.90
23731;DHT22;12046;44.702;10.622;2023-05-10T13:55:03;15.00;99.90
23731;DHT22;12046;44.702;10.622;2023-05-10T13:57:29;14.90;99.90
23731;DHT22;12046;44.702;10.622;2023-05-10T13:59:55;14.90;99.90
23731;DHT22;12046;44.702;10.622;2023-05-10T14:02:23;14.90;99.90
23731;DHT22;12046;44.702;10.622;2023-05-10T14:05:01;14.90;99.90
23731;DHT22;12046;44.702;10.622;2023-05-10T14:07:50;14.90;99.90
23731;DHT22;12046;44.702;10.622;2023-05-10T14:10:45;14.90;99.90
23731;DHT22;12046;44.702;10.622;2023-05-10T14:13:29;14.90;99.90
23731;DHT22;12046;44.702;10.622;2023-05-10T14:15:55;15.00;99.90
23731;DHT22;12046;44.702;10.622;2023-05-10T14:18:27;15.00;99.90
23731;DHT22;12046;44.702;10.622;2023-05-10T14:21:03;15.00;99.90
23731;DHT22;12046;44.702;10.622;2023-05-10T14:23:29;15.00;99.90
23731;DHT22;12046;44.702;10.622;2023-05-10T14:26:01;15.00;99.90
23731;DHT22;12046;44.702;10.622;2023-05-10T14:28:28;15.00;99.90
23731;DHT22;12046;44.702;10.622;2023-05-10T14:30:54;15.10;99.90
23731;DHT22;12046;44.702;10.622;2023-05-10T14:33:19;15.10;99.90
23731;DHT22;12046;44.702;10.622;2023-05-10T14:35:46;15.10;99.90
23731;DHT22;12046;44.702;10.622;2023-05-10T14:38:13;15.10;99.90
23731;DHT22;12046;44.702;10.622;2023-05-10T14:40:39;15.10;99.90
23731;DHT22;12046;44.702;10.622;2023-05-10T14:43:05;15.20;99.90
23731;DHT22;12046;44.702;10.622;2023-05-10T14:45:31;15.20;99.90
23731;DHT22;12046;44.702;10.622;2023-05-10T14:47:57;15.20;99.90
23731;DHT22;12046;44.702;10.622;2023-05-10T14:50:23;15.20;99.90
23731;DHT22;12046;44.702;10.622;2023-05-10T14:52:49;15.10;99.90
23731;DHT22;12046;44.702;10.622;2023-05-10T14:55:18;15.20;99.90
23731;DHT22;12046;44.702;10.622;2023-05-10T14:57:44;15.10;99.90
23731;DHT22;12046;44.702;10.622;2023-05-10T15:00:12;15.10;99.90
23731;DHT22;12046;44.702;10.622;2023-05-10T15:02:44;15.10;99.90
23731;DHT22;12046;44.702;10.622;2023-05-10T15:05:09;15.10;99.90
23731;DHT22;12046;44.702;10.622;2023-05-10T15:07:35;15.10;99.90
23731;DHT22;12046;44.702;10.622;2023-05-10T15:10:01;15.10;99.90
23731;DHT22;12046;44.702;10.622;2023-05-10T15:12:29;15.10;99.90
23731;DHT22;12046;44.702;10.622;2023-05-10T15:14:55;15.10;99.90
23731;DHT22;12046;44.702;10.622;2023-05-10T15:17:21;15.10;99.90
23731;DHT22;12046;44.702;10.622;2023-05-10T15:19:46;15.10;99.90
23731;DHT22;12046;44.702;10.622;2023-05-10T15:22:12;15.10;99.90
23731;DHT22;12046;44.702;10.622;2023-05-10T15:24:38;15.10;99.90
23731;DHT22;12046;44.702;10.622;2023-05-10T15:27:03;15.10;99.90
23731;DHT22;12046;44.702;10.622;2023-05-10T15:29:29;15.10;99.90
23731;DHT22;12046;44.702;10.622;2023-05-10T15:31:56;15.10;99.90
23731;DHT22;12046;44.702;10.622;2023-05-10T15:34:22;15.20;99.90
23731;DHT22;12046;44.702;10.622;2023-05-10T15:36:48;15.10;99.90
23731;DHT22;12046;44.702;10.622;2023-05-10T15:39:14;15.20;99.90
23731;DHT22;12046;44.702;10.622;2023-05-10T15:41:42;15.20;99.90
23731;DHT22;12046;44.702;10.622;2023-05-10T15:44:08;15.10;99.90
23731;DHT22;12046;44.702;10.622;2023-05-10T15:46:34;15.20;99.90
23731;DHT22;12046;44.702;10.622;2023-05-10T15:49:05;15.20;99.90
23731;DHT22;12046;44.702;10.622;2023-05-10T15:51:34;15.20;99.90
23731;DHT22;12046;44.702;10.622;2023-05-10T15:54:02;15.10;99.90
23731;DHT22;12046;44.702;10.622;2023-05-10T15:56:28;15.20;99.90
23731;DHT22;12046;44.702;10.622;2023-05-10T15:58:54;15.10;99.90
23731;DHT22;12046;44.702;10.622;2023-05-10T16:01:22;15.10;99.90
23731;DHT22;12046;44.702;10.622;2023-05-10T16:03:48;15.10;99.90
23731;DHT22;12046;44.702;10.622;2023-05-10T16:06:14;15.10;99.90
23731;DHT22;12046;44.702;10.622;2023-05-10T16:08:40;15.10;99.90
23731;DHT22;12046;44.702;10.622;2023-05-10T16:11:06;15.00;99.90
23731;DHT22;12046;44.702;10.622;2023-05-10T16:13:36;15.10;99.90